createdAt,value
2023-01-11T00:01:36.851Z,101749.88
2023-01-11T00:04:15.262Z,101748.94
2023-01-11T00:06:44.199Z,101749.03
2023-01-11T00:09:12.787Z,101750.78
2023-01-11T00:11:39.808Z,101746.38
2023-01-11T00:14:15.440Z,101751.56
2023-01-11T00:16:42.389Z,101751.53
2023-01-11T00:19:09.253Z,101749.84
2023-01-11T00:21:38.991Z,101756.91
2023-01-11T00:24:15.077Z,101754.28
2023-01-11T00:26:44.270Z,101757.78
2023-01-11T00:29:20.036Z,101762.16
2023-01-11T00:31:47.251Z,101763.91
2023-01-11T00:34:14.075Z,101762.16
2023-01-11T00:36:43.454Z,101758.66
2023-01-11T00:39:10.597Z,101757.78
2023-01-11T00:41:57.160Z,101763.91
2023-01-11T00:44:44.110Z,101765.66
2023-01-11T00:47:39.035Z,101766.50
2023-01-11T00:50:26.509Z,101768.25
2023-01-11T00:52:56.493Z,101774.34
2023-01-11T00:55:29.837Z,101775.25
2023-01-11T00:58:08.670Z,101775.28
2023-01-11T01:00:37.332Z,101777.91
2023-01-11T01:03:06.342Z,101781.38
2023-01-11T01:05:44.322Z,101785.75
2023-01-11T01:08:13.684Z,101784.00
2023-01-11T01:10:49.247Z,101775.25
2023-01-11T01:13:39.848Z,101775.28
2023-01-11T01:16:07.229Z,101772.63
2023-01-11T01:18:34.116Z,101785.69
2023-01-11T01:21:03.397Z,101787.44
2023-01-11T01:23:30.619Z,101791.84
2023-01-11T01:28:36.647Z,101773.47
2023-01-11T01:31:04.583Z,101769.00
2023-01-11T01:33:32.908Z,101769.88
2023-01-11T01:36:04.574Z,101769.06
2023-01-11T01:38:31.697Z,101770.69
2023-01-11T01:40:58.662Z,101763.66
2023-01-11T01:43:51.036Z,101770.56
2023-01-11T01:46:21.243Z,101782.53
2023-01-11T01:48:56.226Z,101779.84
2023-01-11T01:51:31.089Z,101771.13
2023-01-11T01:54:02.782Z,101766.72
2023-01-11T01:56:36.744Z,101762.25
2023-01-11T01:59:10.904Z,101768.50
2023-01-11T02:01:48.529Z,101754.59
2023-01-11T02:04:27.472Z,101763.22
2023-01-11T02:06:59.904Z,101773.44
2023-01-11T02:09:55.985Z,101770.19
2023-01-11T02:12:30.300Z,101773.19
2023-01-11T02:15:03.462Z,101777.50
2023-01-11T02:17:31.954Z,101772.31
2023-01-11T02:20:08.698Z,101781.00
2023-01-11T02:23:08.365Z,101772.31
2023-01-11T02:26:21.779Z,101773.13
2023-01-11T02:28:57.498Z,101774.97
2023-01-11T02:31:39.660Z,101767.13
2023-01-11T02:34:31.545Z,101761.88
2023-01-11T02:37:11.408Z,101768.75
2023-01-11T02:39:49.945Z,101755.81
2023-01-11T02:43:01.196Z,101742.81
2023-01-11T02:45:46.014Z,101749.84
2023-01-11T02:48:35.236Z,101742.63
2023-01-11T02:51:08.508Z,101742.63
2023-01-11T02:53:35.527Z,101750.41
2023-01-11T02:56:13.383Z,101745.03
2023-01-11T02:58:45.184Z,101741.31
2023-01-11T03:01:22.997Z,101732.66
2023-01-11T03:04:07.897Z,101742.09
2023-01-11T03:06:35.850Z,101741.25
2023-01-11T03:09:38.237Z,101735.97
2023-01-11T03:12:42.127Z,101736.75
2023-01-11T03:15:19.461Z,101736.03
2023-01-11T03:18:16.364Z,101728.31
2023-01-11T03:21:02.074Z,101724.84
2023-01-11T03:23:44.457Z,101732.66
2023-01-11T03:26:29.324Z,101728.22
2023-01-11T03:29:13.374Z,101721.53
2023-01-11T03:32:11.514Z,101726.50
2023-01-11T03:34:57.504Z,101730.97
2023-01-11T03:37:50.996Z,101727.56
2023-01-11T03:40:41.588Z,101728.50
2023-01-11T03:43:14.171Z,101719.00
2023-01-11T03:46:09.478Z,101716.22
2023-01-11T03:49:26.774Z,101721.56
2023-01-11T03:52:02.041Z,101723.34
2023-01-11T03:54:38.360Z,101736.22
2023-01-11T03:57:12.185Z,101731.78
2023-01-11T03:59:42.931Z,101736.94
2023-01-11T04:02:25.161Z,101743.00
2023-01-11T04:04:55.255Z,101745.44
2023-01-11T04:07:23.880Z,101737.78
2023-01-11T04:09:58.673Z,101736.75
2023-01-11T04:12:28.175Z,101733.16
2023-01-11T04:14:55.014Z,101733.13
2023-01-11T04:17:21.819Z,101731.53
2023-01-11T04:19:50.991Z,101728.06
2023-01-11T04:22:21.350Z,101730.44
2023-01-11T04:24:48.869Z,101733.06
2023-01-11T04:27:15.726Z,101727.91
2023-01-11T04:29:42.888Z,101730.47
2023-01-11T04:32:13.661Z,101725.47
2023-01-11T04:34:43.909Z,101729.81
2023-01-11T04:37:13.433Z,101731.72
2023-01-11T04:39:45.639Z,101733.38
2023-01-11T04:42:18.861Z,101729.91
2023-01-11T04:44:48.876Z,101728.94
2023-01-11T04:47:23.407Z,101732.94
2023-01-11T04:49:50.778Z,101732.84
2023-01-11T04:52:21.370Z,101732.25
2023-01-11T04:54:51.663Z,101738.28
2023-01-11T04:57:18.827Z,101742.69
2023-01-11T04:59:55.241Z,101742.06
2023-01-11T05:02:25.293Z,101742.31
2023-01-11T05:04:52.149Z,101742.19
2023-01-11T05:07:19.766Z,101742.34
2023-01-11T05:10:00.658Z,101743.13
2023-01-11T05:12:38.000Z,101735.13
2023-01-11T05:15:19.331Z,101750.72
2023-01-11T05:17:49.378Z,101754.13
2023-01-11T05:20:16.399Z,101745.41
2023-01-11T05:22:48.973Z,101747.28
2023-01-11T05:25:21.678Z,101739.53
2023-01-11T05:27:56.087Z,101732.66
2023-01-11T05:30:23.524Z,101730.06
2023-01-11T05:32:56.112Z,101728.47
2023-01-11T05:35:26.205Z,101736.03
2023-01-11T05:37:58.787Z,101739.72
2023-01-11T05:40:37.769Z,101723.25
2023-01-11T05:43:12.210Z,101725.94
2023-01-11T05:45:40.324Z,101730.06
2023-01-11T05:48:08.903Z,101729.94
2023-01-11T05:50:36.183Z,101743.78
2023-01-11T05:53:09.789Z,101738.53
2023-01-11T05:55:39.758Z,101729.88
2023-01-11T05:58:11.530Z,101735.00
2023-01-11T06:01:06.087Z,101726.16
2023-01-11T06:03:35.461Z,101729.47
2023-01-11T06:06:05.058Z,101725.94
2023-01-11T06:08:38.336Z,101725.97
2023-01-11T06:11:05.414Z,101722.31
2023-01-11T06:13:36.050Z,101723.13
2023-01-11T06:16:16.071Z,101723.88
2023-01-11T06:18:45.631Z,101723.84
2023-01-11T06:21:21.334Z,101726.41
2023-01-11T06:23:53.801Z,101725.88
2023-01-11T06:26:25.137Z,101718.66
2023-01-11T06:28:52.060Z,101715.19
2023-01-11T06:31:21.566Z,101703.34
2023-01-11T06:33:48.497Z,101702.72
2023-01-11T06:36:19.171Z,101708.63
2023-01-11T06:38:46.031Z,101701.75
2023-01-11T06:41:13.684Z,101697.38
2023-01-11T06:43:42.675Z,101698.25
2023-01-11T06:46:19.185Z,101694.03
2023-01-11T06:48:52.994Z,101693.09
2023-01-11T06:51:25.431Z,101696.59
2023-01-11T06:53:52.279Z,101701.66
2023-01-11T06:56:19.244Z,101697.13
2023-01-11T06:58:53.660Z,101704.41
2023-01-11T07:01:27.043Z,101706.13
2023-01-11T07:04:00.852Z,101711.13
2023-01-11T07:06:29.365Z,101703.31
2023-01-11T07:08:58.880Z,101705.81
2023-01-11T07:11:33.675Z,101711.94
2023-01-11T07:14:03.413Z,101714.44
2023-01-11T07:16:30.233Z,101705.44
2023-01-11T07:18:57.068Z,101704.22
2023-01-11T07:21:23.973Z,101701.50
2023-01-11T07:23:55.659Z,101699.47
2023-01-11T07:26:29.977Z,101708.09
2023-01-11T07:28:59.320Z,101706.84
2023-01-11T07:31:26.263Z,101709.47
2023-01-11T07:33:55.989Z,101712.16
2023-01-11T07:36:27.325Z,101716.69
2023-01-11T07:38:57.036Z,101718.31
2023-01-11T07:41:43.031Z,101712.25
2023-01-11T07:44:10.573Z,101714.03
2023-01-11T07:46:40.062Z,101721.00
2023-01-11T07:49:07.697Z,101726.06
2023-01-11T07:51:34.907Z,101737.09
2023-01-11T07:54:04.171Z,101752.59
2023-01-11T07:56:31.531Z,101753.28
2023-01-11T07:59:01.347Z,101750.66
2023-01-11T08:01:31.348Z,101737.34
2023-01-11T08:03:58.189Z,101758.09
2023-01-11T08:06:25.024Z,101742.59
2023-01-11T08:08:53.873Z,101742.69
2023-01-11T08:14:43.917Z,101753.16
2023-01-11T08:17:22.181Z,101742.75
2023-01-11T08:19:48.990Z,101748.13
2023-01-11T08:22:17.669Z,101759.53
2023-01-11T08:24:44.958Z,101763.00
2023-01-11T08:27:11.835Z,101772.59
2023-01-11T08:29:40.059Z,101780.38
2023-01-11T08:32:06.855Z,101790.00
2023-01-11T08:34:34.852Z,101788.25
2023-01-11T08:37:04.608Z,101798.84
2023-01-11T08:39:32.232Z,101794.50
2023-01-11T08:44:51.923Z,101814.28
2023-01-11T08:47:25.368Z,101807.66
2023-01-11T08:49:52.197Z,101810.28
2023-01-11T08:52:24.632Z,101818.00
2023-01-11T08:55:08.813Z,101815.50
2023-01-11T08:57:36.866Z,101821.66
2023-01-11T09:00:06.301Z,101809.28
2023-01-11T09:02:36.731Z,101816.41
2023-01-11T09:05:07.429Z,101814.59
2023-01-11T09:07:34.545Z,101814.66
2023-01-11T09:10:10.708Z,101814.66
2023-01-11T09:12:45.073Z,101810.25
2023-01-11T09:15:12.010Z,101804.13
2023-01-11T09:17:39.999Z,101811.16
2023-01-11T09:20:13.116Z,101825.06
2023-01-11T09:23:15.268Z,101832.00
2023-01-11T09:25:45.279Z,101829.41
2023-01-11T09:28:12.727Z,101825.81
2023-01-11T09:30:39.996Z,101829.44
2023-01-11T09:33:09.262Z,101834.66
2023-01-11T09:35:38.735Z,101832.09
2023-01-11T09:38:09.075Z,101833.88
2023-01-11T09:41:08.622Z,101832.16
2023-01-11T09:43:54.153Z,101821.63
2023-01-11T09:46:22.280Z,101825.16
2023-01-11T09:48:56.519Z,101819.91
2023-01-11T09:51:41.801Z,101823.38
2023-01-11T09:54:26.214Z,101818.16
2023-01-11T09:57:16.633Z,101808.50
2023-01-11T09:59:54.405Z,101810.25
2023-01-11T10:03:08.173Z,101799.78
2023-01-11T10:05:59.615Z,101801.53
2023-01-11T10:18:29.329Z,101793.66
2023-01-11T10:19:10.384Z,101792.78
2023-01-11T10:22:45.047Z,101781.44
2023-01-11T10:25:54.560Z,101775.25
2023-01-11T10:32:07.985Z,101779.63
2023-01-11T10:42:22.049Z,101771.66
2023-01-11T10:45:40.801Z,101762.91
2023-01-11T10:48:25.684Z,101760.31
2023-01-11T10:51:37.097Z,101774.38
2023-01-11T10:54:34.579Z,101776.06
2023-01-11T10:57:20.146Z,101760.31
2023-01-11T11:00:08.206Z,101761.13
2023-01-11T11:02:54.400Z,101764.66
2023-01-11T11:05:43.109Z,101751.53
2023-01-11T11:08:33.911Z,101751.47
2023-01-11T11:11:22.440Z,101744.44
2023-01-11T11:14:04.790Z,101728.72
2023-01-11T11:16:54.701Z,101729.59
2023-01-11T11:19:26.843Z,101729.53
2023-01-11T11:21:54.070Z,101730.34
2023-01-11T11:24:44.284Z,101723.31
2023-01-11T11:27:45.829Z,101710.25
2023-01-11T11:30:25.636Z,101719.66
2023-01-11T11:33:00.746Z,101721.38
2023-01-11T11:35:40.062Z,101720.56
2023-01-11T11:38:30.883Z,101707.41
2023-01-11T11:40:59.406Z,101703.06
2023-01-11T11:43:28.424Z,101705.66
2023-01-11T11:45:59.451Z,101700.38
2023-01-11T11:48:32.856Z,101707.28
2023-01-11T11:51:03.200Z,101694.97
2023-01-11T11:53:46.169Z,101688.81
2023-01-11T11:56:23.333Z,101684.50
2023-01-11T11:58:50.984Z,101689.66
2023-01-11T12:01:36.295Z,101679.94
2023-01-11T12:04:25.005Z,101682.75
2023-01-11T12:07:04.673Z,101682.59
2023-01-11T12:09:43.711Z,101673.75
2023-01-11T12:12:24.408Z,101660.44
2023-01-11T12:15:24.506Z,101659.63
2023-01-11T12:17:55.988Z,101654.19
2023-01-11T12:20:22.794Z,101655.06
2023-01-11T12:22:53.805Z,101648.91
2023-01-11T12:25:22.175Z,101656.13
2023-01-11T12:28:07.668Z,101650.00
2023-01-11T12:30:47.077Z,101653.53
2023-01-11T12:33:13.856Z,101647.38
2023-01-11T12:36:09.900Z,101644.84
2023-01-11T12:38:46.201Z,101640.28
2023-01-11T12:41:19.118Z,101634.19
2023-01-11T12:44:32.909Z,101632.63
2023-01-11T12:47:09.405Z,101629.94
2023-01-11T12:50:00.517Z,101624.56
2023-01-11T12:52:41.631Z,101621.84
2023-01-11T12:55:38.152Z,101614.78
2023-01-11T12:58:35.340Z,101611.22
2023-01-11T13:01:39.211Z,101609.56
2023-01-11T13:04:46.845Z,101612.25
2023-01-11T13:07:19.654Z,101613.97
2023-01-11T13:09:52.545Z,101610.47
2023-01-11T13:12:46.071Z,101607.91
2023-01-11T13:15:13.082Z,101608.69
2023-01-11T13:17:58.873Z,101610.38
2023-01-11T13:21:00.805Z,101606.88
2023-01-11T13:23:50.411Z,101605.09
2023-01-11T13:26:25.775Z,101605.88
2023-01-11T13:29:03.999Z,101604.84
2023-01-11T13:31:33.749Z,101599.63
2023-01-11T13:34:43.595Z,101587.19
2023-01-11T13:37:26.089Z,101581.09
2023-01-11T13:40:01.845Z,101582.88
2023-01-11T13:42:41.927Z,101576.66
2023-01-11T13:45:21.759Z,101569.56
2023-01-11T13:47:55.896Z,101563.56
2023-01-11T13:50:38.505Z,101564.47
2023-01-11T13:53:43.901Z,101562.56
2023-01-11T13:56:26.460Z,101553.69
2023-01-11T13:59:03.452Z,101549.38
2023-01-11T14:01:51.612Z,101557.41
2023-01-11T14:04:30.267Z,101563.72
2023-01-11T14:07:20.378Z,101566.16
2023-01-11T14:09:53.545Z,101564.34
2023-01-11T14:12:43.098Z,101564.47
2023-01-11T14:15:38.739Z,101573.28
2023-01-11T14:18:29.439Z,101568.84
2023-01-11T14:21:07.504Z,101564.63
2023-01-11T14:23:49.388Z,101571.59
2023-01-11T14:26:19.257Z,101564.56
2023-01-11T14:28:49.103Z,101571.72
2023-01-11T14:31:16.059Z,101578.75
2023-01-11T14:34:04.239Z,101578.84
2023-01-11T14:37:05.657Z,101577.97
2023-01-11T14:40:04.832Z,101580.63
2023-01-11T14:43:02.976Z,101575.34
2023-01-11T14:45:54.654Z,101565.78
2023-01-11T14:48:40.656Z,101563.13
2023-01-11T14:51:30.654Z,101554.41
2023-01-11T14:54:31.816Z,101551.69
2023-01-11T14:56:59.326Z,101545.75
2023-01-11T14:59:29.215Z,101537.78
2023-01-11T15:02:05.397Z,101524.47
2023-01-11T15:04:55.256Z,101532.38
2023-01-11T15:07:25.095Z,101530.69
2023-01-11T15:09:56.840Z,101530.47
2023-01-11T15:12:32.212Z,101529.84
2023-01-11T15:15:19.007Z,101529.75
2023-01-11T15:18:04.911Z,101520.97
2023-01-11T15:20:33.942Z,101526.25
2023-01-11T15:23:05.952Z,101519.91
2023-01-11T15:25:35.961Z,101532.69
2023-01-11T15:28:25.150Z,101530.03
2023-01-11T15:30:53.022Z,101536.16
2023-01-11T15:33:20.052Z,101534.34
2023-01-11T15:35:56.029Z,101529.59
2023-01-11T15:39:03.256Z,101518.09
2023-01-11T15:42:04.348Z,101516.19
2023-01-11T15:45:08.873Z,101520.47
2023-01-11T15:47:41.998Z,101525.34
2023-01-11T15:50:30.743Z,101531.53
2023-01-11T15:53:12.751Z,101526.31
2023-01-11T15:56:10.434Z,101518.47
2023-01-11T15:59:02.691Z,101508.34
2023-01-11T16:01:30.234Z,101518.28
2023-01-11T16:04:21.478Z,101525.47
2023-01-11T16:06:59.318Z,101529.75
2023-01-11T16:10:00.338Z,101523.75
2023-01-11T16:12:48.699Z,101528.25
2023-01-11T16:15:33.586Z,101529.06
2023-01-11T16:18:23.400Z,101525.59
2023-01-11T16:21:04.881Z,101521.38
2023-01-11T16:23:32.717Z,101521.47
2023-01-11T16:26:00.541Z,101516.03
2023-01-11T16:28:28.225Z,101514.28
2023-01-11T16:30:57.222Z,101519.59
2023-01-11T16:33:29.804Z,101522.38
2023-01-11T16:36:03.201Z,101528.63
2023-01-11T16:38:31.804Z,101523.44
2023-01-11T16:40:59.838Z,101529.59
2023-01-11T16:43:29.764Z,101532.22
2023-01-11T16:45:56.978Z,101548.00
2023-01-11T16:48:25.961Z,101544.47
2023-01-11T16:51:04.024Z,101551.47
2023-01-11T16:53:39.599Z,101554.06
2023-01-11T16:56:36.488Z,101558.38
2023-01-11T16:59:15.741Z,101563.63
2023-01-11T17:01:45.951Z,101564.53
2023-01-11T17:04:36.637Z,101570.69
2023-01-11T17:07:27.700Z,101561.06
2023-01-11T17:10:30.486Z,101558.34
2023-01-11T17:16:51.382Z,101554.97
2023-01-11T17:19:33.729Z,101555.81
2023-01-11T17:22:15.235Z,101564.56
2023-01-11T17:25:07.784Z,101568.09
2023-01-11T17:27:50.924Z,101565.47
2023-01-11T17:30:22.023Z,101573.31
2023-01-11T17:32:51.053Z,101561.97
2023-01-11T17:35:24.786Z,101561.06
2023-01-11T17:37:57.955Z,101547.97
2023-01-11T17:40:39.016Z,101558.47
2023-01-11T17:43:31.905Z,101556.72
2023-01-11T17:46:02.886Z,101572.44
2023-01-11T17:48:34.715Z,101568.94
2023-01-11T17:51:05.769Z,101575.91
2023-01-11T17:53:37.676Z,101589.91
2023-01-11T17:56:07.924Z,101598.63
2023-01-11T17:58:42.561Z,101597.78
2023-01-11T18:01:20.657Z,101602.16
2023-01-11T18:03:59.317Z,101599.53
2023-01-11T18:06:40.204Z,101604.78
2023-01-11T18:09:32.490Z,101610.00
2023-01-11T18:12:18.690Z,101604.75
2023-01-11T18:14:55.655Z,101611.72
2023-01-11T18:17:42.336Z,101618.69
2023-01-11T18:20:21.501Z,101625.69
2023-01-11T18:23:16.920Z,101627.44
2023-01-11T18:25:49.057Z,101626.56
2023-01-11T18:28:20.393Z,101628.28
2023-01-11T18:30:54.409Z,101630.97
2023-01-11T18:33:24.398Z,101631.00
2023-01-11T18:36:03.009Z,101637.09
2023-01-11T18:38:35.128Z,101630.97
2023-01-11T18:41:34.170Z,101623.06
2023-01-11T18:44:02.973Z,101625.72
2023-01-11T18:46:29.860Z,101625.72
2023-01-11T18:49:00.196Z,101632.69
2023-01-11T18:51:35.731Z,101623.09
2023-01-11T18:54:02.705Z,101616.06
2023-01-11T18:56:32.789Z,101615.22
2023-01-11T18:58:59.640Z,101616.91
2023-01-11T19:01:26.682Z,101616.91
2023-01-11T19:03:54.612Z,101611.69
2023-01-11T19:06:23.099Z,101612.59
2023-01-11T19:08:49.860Z,101604.75
2023-01-11T19:11:19.854Z,101613.50
2023-01-11T19:13:47.279Z,101603.91
2023-01-11T19:16:18.029Z,101610.00
2023-01-11T19:18:48.542Z,101614.38
2023-01-11T19:21:15.678Z,101615.25
2023-01-11T19:23:42.603Z,101616.06
2023-01-11T19:26:09.652Z,101616.97
2023-01-11T19:28:37.752Z,101620.47
2023-01-11T19:31:09.349Z,101616.13
2023-01-11T19:33:36.605Z,101618.75
2023-01-11T19:36:08.158Z,101617.00
2023-01-11T19:38:35.868Z,101608.28
2023-01-11T19:41:11.160Z,101602.16
2023-01-11T19:43:47.561Z,101613.50
2023-01-11T19:46:30.692Z,101626.63
2023-01-11T19:48:58.996Z,101636.25
2023-01-11T19:51:28.233Z,101639.75
2023-01-11T19:53:56.609Z,101630.13
2023-01-11T19:56:24.419Z,101629.25
2023-01-11T19:58:54.334Z,101620.50
2023-01-11T20:01:23.368Z,101616.97
2023-01-11T20:03:53.025Z,101624.84
2023-01-11T20:06:20.577Z,101632.75
2023-01-11T20:08:51.378Z,101632.72
2023-01-11T20:11:20.401Z,101621.41
2023-01-11T20:13:53.182Z,101621.34
2023-01-11T20:16:22.887Z,101617.84
2023-01-11T20:18:57.337Z,101618.69
2023-01-11T20:21:27.695Z,101622.16
2023-01-11T20:23:59.874Z,101621.31
2023-01-11T20:26:34.254Z,101620.44
2023-01-11T20:29:02.099Z,101632.69
2023-01-11T20:31:31.994Z,101641.41
2023-01-11T20:34:00.357Z,101632.63
2023-01-11T20:36:33.112Z,101641.38
2023-01-11T20:39:01.636Z,101635.25
2023-01-11T20:41:47.934Z,101641.38
2023-01-11T20:44:20.532Z,101638.78
2023-01-11T20:46:52.044Z,101636.13
2023-01-11T20:49:27.000Z,101639.59
2023-01-11T20:52:00.268Z,101643.09
2023-01-11T20:54:27.862Z,101654.47
2023-01-11T20:57:01.404Z,101652.78
2023-01-11T20:59:28.949Z,101658.06
2023-01-11T21:01:56.137Z,101658.06
2023-01-11T21:04:28.352Z,101666.78
2023-01-11T21:06:55.675Z,101667.69
2023-01-11T21:09:22.634Z,101679.03
2023-01-11T21:11:54.271Z,101685.16
2023-01-11T21:14:22.728Z,101683.38
2023-01-11T21:16:50.540Z,101683.41
2023-01-11T21:19:18.936Z,101679.84
2023-01-11T21:21:49.590Z,101692.09
2023-01-11T21:24:18.118Z,101693.88
2023-01-11T21:27:15.003Z,101695.59
2023-01-11T21:29:43.533Z,101701.75
2023-01-11T21:32:10.493Z,101706.97
2023-01-11T21:34:39.011Z,101700.81
2023-01-11T21:37:08.109Z,101709.69
2023-01-11T21:39:37.132Z,101709.66
2023-01-11T21:42:05.408Z,101707.00
2023-01-11T21:44:34.092Z,101717.47
2023-01-11T21:47:05.844Z,101724.41
2023-01-11T21:49:33.484Z,101729.66
2023-01-11T21:52:05.191Z,101718.28
2023-01-11T21:54:32.655Z,101715.59
2023-01-11T21:56:59.517Z,101708.66
2023-01-11T21:59:26.536Z,101711.28
2023-01-11T22:01:59.065Z,101711.25
2023-01-11T22:04:29.439Z,101705.19
2023-01-11T22:07:01.467Z,101707.75
2023-01-11T22:09:28.716Z,101711.28
2023-01-11T22:11:57.577Z,101706.97
2023-01-11T22:14:26.501Z,101703.44
2023-01-11T22:16:53.713Z,101699.06
2023-01-11T22:19:23.289Z,101695.59
2023-01-11T22:21:51.277Z,101697.38
2023-01-11T22:24:22.010Z,101692.13
2023-01-11T22:26:51.543Z,101686.88
2023-01-11T22:29:21.027Z,101677.22
2023-01-11T22:31:55.198Z,101679.00
2023-01-11T22:34:22.957Z,101679.03
2023-01-11T22:36:50.132Z,101680.72
2023-01-11T22:39:19.814Z,101690.31
2023-01-11T22:41:49.501Z,101680.72
2023-01-11T22:44:16.674Z,101687.69
2023-01-11T22:46:44.901Z,101680.81
2023-01-11T22:49:18.434Z,101690.41
2023-01-11T22:51:46.870Z,101679.06
2023-01-11T22:54:16.883Z,101681.66
2023-01-11T22:56:45.031Z,101683.34
2023-01-11T22:59:12.444Z,101682.44
2023-01-11T23:01:41.793Z,101697.31
2023-01-11T23:04:12.619Z,101695.56
2023-01-11T23:06:46.041Z,101696.44
2023-01-11T23:09:16.163Z,101703.50
2023-01-11T23:12:01.954Z,101714.91
2023-01-11T23:14:33.960Z,101708.78
2023-01-11T23:17:12.939Z,101701.75
2023-01-11T23:19:47.743Z,101697.41
2023-01-11T23:22:17.854Z,101691.28
2023-01-11T23:24:44.786Z,101683.41
2023-01-11T23:27:11.855Z,101682.53
2023-01-11T23:29:38.763Z,101677.28
2023-01-11T23:32:05.964Z,101667.69
2023-01-11T23:34:34.209Z,101668.56
2023-01-11T23:37:02.142Z,101664.22
2023-01-11T23:39:29.480Z,101657.22
2023-01-11T23:42:14.793Z,101649.38
2023-01-11T23:44:42.531Z,101658.94
2023-01-11T23:47:36.751Z,101666.81
2023-01-11T23:50:03.800Z,101658.91
2023-01-11T23:52:32.690Z,101652.84
2023-01-11T23:55:04.381Z,101652.00
2023-01-11T23:57:32.491Z,101651.94
2023-01-11T23:59:59.456Z,101667.69
